This is the latest recevied weather packets stored in our database for station/object OM6ABF-12. If no packets are shown the sender has not sent any weather packets the latest 10 day(s).
| Time | Temp. | Humidity | Pressure | Rain* | Wind** | Luminosity | Snow |
|---|---|---|---|---|---|---|---|
| 1777380254 | 12.22° C | 29% | 1028.6 hPa | - | - | - | - |
| 1777379295 | 11.67° C | 30% | 1028.6 hPa | - | - | - | - |
| 1777378336 | 12.22° C | 29% | 1028.6 hPa | - | - | - | - |
| 1777377377 | 12.22° C | 29% | 1028.5 hPa | - | - | - | - |
| 1777376418 | 11.67° C | 29% | 1028.6 hPa | - | - | - | - |
| 1777375459 | 12.22° C | 28% | 1028.6 hPa | - | - | - | - |
| 1777374500 | 12.78° C | 27% | 1028.7 hPa | - | - | - | - |
| 1777373543 | 12.22° C | 27% | 1028.6 hPa | - | - | - | - |
| 1777372585 | 11.67° C | 31% | 1028.7 hPa | - | - | - | - |
| 1777371627 | 11.11° C | 29% | 1028.7 hPa | - | - | - | - |
| 1777370670 | 9.44° C | 33% | 1028.9 hPa | - | - | - | - |
| 1777369713 | 11.11° C | 30% | 1028.9 hPa | - | - | - | - |
| 1777368757 | 12.78° C | 29% | 1029 hPa | - | - | - | - |
| 1777367800 | 12.22° C | 29% | 1028.9 hPa | - | - | - | - |
| 1777366844 | 11.11° C | 28% | 1029 hPa | - | - | - | - |
| 1777365889 | 11.67° C | 28% | 1028.9 hPa | - | - | - | - |
| 1777364930 | 11.67° C | 28% | 1028.8 hPa | - | - | - | - |
| 1777363975 | 11.67° C | 28% | 1028.9 hPa | - | - | - | - |
| 1777363018 | 12.22° C | 27% | 1028.7 hPa | - | - | - | - |
| 1777362061 | 12.22° C | 28% | 1028.7 hPa | - | - | - | - |
| 1777361104 | 11.11° C | 27% | 1028.6 hPa | - | - | - | - |
| 1777360147 | 10.56° C | 29% | 1028.7 hPa | - | - | - | - |
| 1777359189 | 10° C | 29% | 1028.6 hPa | - | - | - | - |
| 1777358230 | 8.33° C | 31% | 1028.6 hPa | - | - | - | - |
| 1777357273 | 6.11° C | 36% | 1028.7 hPa | - | - | - | - |
* Rain since midnight (hover to see other rain measurements)
** Current wind speed in m/s (hover to see current wind gust speed)